Terminal Aerodrome Forecast
Issued by NWS

Home | Current Version | Previous Version | Text Only | Print | Product List | Glossary On
Versions: 1 2 3 4 5 6 7 8 9 10 11 12 13 14 15 16 17 18 19
653
FTUS41 KGYX 122320
TAFRKD
TAF
KRKD 122320Z 1300/1324 24003KT P6SM BKN050 BKN080
     FM130600 09006KT 1SM -SN BR BKN015 OVC025
     FM130900 08007KT 1/2SM SN OVC008
     FM131500 02010KT 1SM -SN BR SCT008 OVC015
     FM131800 32012G22KT P6SM SCT025 BKN040
      AMD LTD TO CLD VIS AND WIND=

USA.gov is the U.S. government's official web portal to all federal, state and local government web resources and services.